sensor_id;sensor_type;location;lat;lon;timestamp;P1;durP1;ratioP1;P2;durP2;ratioP2
12912;SDS011;6524;51.368;11.984;2024-03-08T00:02:16;30.93;;;20.33;;
12912;SDS011;6524;51.368;11.984;2024-03-08T00:07:16;26.90;;;19.63;;
12912;SDS011;6524;51.368;11.984;2024-03-08T00:12:17;29.53;;;20.33;;
12912;SDS011;6524;51.368;11.984;2024-03-08T00:17:17;32.70;;;21.07;;
12912;SDS011;6524;51.368;11.984;2024-03-08T00:22:17;30.10;;;20.87;;
12912;SDS011;6524;51.368;11.984;2024-03-08T00:27:18;27.50;;;20.13;;
12912;SDS011;6524;51.368;11.984;2024-03-08T00:32:21;30.57;;;20.73;;
12912;SDS011;6524;51.368;11.984;2024-03-08T00:37:24;28.53;;;20.80;;
12912;SDS011;6524;51.368;11.984;2024-03-08T00:42:27;29.10;;;19.77;;
12912;SDS011;6524;51.368;11.984;2024-03-08T00:47:27;28.47;;;20.70;;
12912;SDS011;6524;51.368;11.984;2024-03-08T00:52:27;30.10;;;19.63;;
12912;SDS011;6524;51.368;11.984;2024-03-08T00:57:27;31.17;;;20.80;;
12912;SDS011;6524;51.368;11.984;2024-03-08T02:46:32;31.10;;;19.77;;
12912;SDS011;6524;51.368;11.984;2024-03-08T05:03:07;33.87;;;21.20;;
12912;SDS011;6524;51.368;11.984;2024-03-08T05:08:07;30.77;;;19.47;;
12912;SDS011;6524;51.368;11.984;2024-03-08T05:13:08;33.50;;;21.10;;
12912;SDS011;6524;51.368;11.984;2024-03-08T05:18:08;33.53;;;20.87;;
12912;SDS011;6524;51.368;11.984;2024-03-08T05:23:11;35.17;;;20.90;;
12912;SDS011;6524;51.368;11.984;2024-03-08T05:28:12;32.47;;;20.33;;
12912;SDS011;6524;51.368;11.984;2024-03-08T05:33:13;33.43;;;20.63;;
12912;SDS011;6524;51.368;11.984;2024-03-08T05:38:15;35.77;;;21.10;;
12912;SDS011;6524;51.368;11.984;2024-03-08T05:43:17;32.80;;;21.10;;
12912;SDS011;6524;51.368;11.984;2024-03-08T05:48:19;32.13;;;21.43;;
12912;SDS011;6524;51.368;11.984;2024-03-08T05:53:19;34.03;;;21.27;;
12912;SDS011;6524;51.368;11.984;2024-03-08T05:58:20;33.47;;;21.37;;
12912;SDS011;6524;51.368;11.984;2024-03-08T06:03:20;35.30;;;20.77;;
12912;SDS011;6524;51.368;11.984;2024-03-08T06:08:21;34.57;;;21.53;;
12912;SDS011;6524;51.368;11.984;2024-03-08T06:13:21;31.80;;;20.67;;
12912;SDS011;6524;51.368;11.984;2024-03-08T06:18:21;34.73;;;21.60;;
12912;SDS011;6524;51.368;11.984;2024-03-08T06:23:22;31.37;;;20.47;;
12912;SDS011;6524;51.368;11.984;2024-03-08T06:28:23;31.93;;;20.87;;
12912;SDS011;6524;51.368;11.984;2024-03-08T06:33:23;31.97;;;20.43;;
12912;SDS011;6524;51.368;11.984;2024-03-08T06:38:24;34.07;;;21.53;;
12912;SDS011;6524;51.368;11.984;2024-03-08T06:43:24;33.30;;;21.17;;
12912;SDS011;6524;51.368;11.984;2024-03-08T06:48:32;31.87;;;21.07;;
12912;SDS011;6524;51.368;11.984;2024-03-08T06:53:32;32.13;;;21.57;;
12912;SDS011;6524;51.368;11.984;2024-03-08T06:58:35;34.03;;;22.17;;
12912;SDS011;6524;51.368;11.984;2024-03-08T07:03:35;32.80;;;22.07;;
12912;SDS011;6524;51.368;11.984;2024-03-08T07:08:35;31.80;;;21.83;;
12912;SDS011;6524;51.368;11.984;2024-03-08T07:13:36;34.00;;;22.40;;
12912;SDS011;6524;51.368;11.984;2024-03-08T07:18:36;31.20;;;22.73;;
12912;SDS011;6524;51.368;11.984;2024-03-08T07:23:41;31.63;;;23.83;;
12912;SDS011;6524;51.368;11.984;2024-03-08T07:28:58;28.77;;;22.95;;
12912;SDS011;6524;51.368;11.984;2024-03-08T07:34:00;26.83;;;23.65;;
12912;SDS011;6524;51.368;11.984;2024-03-08T07:39:00;26.42;;;23.52;;
12912;SDS011;6524;51.368;11.984;2024-03-08T07:44:01;26.45;;;23.75;;
12912;SDS011;6524;51.368;11.984;2024-03-08T07:49:03;26.88;;;24.13;;
12912;SDS011;6524;51.368;11.984;2024-03-08T07:54:04;27.85;;;24.98;;
12912;SDS011;6524;51.368;11.984;2024-03-08T07:59:04;29.05;;;24.63;;
12912;SDS011;6524;51.368;11.984;2024-03-08T08:04:05;27.25;;;24.55;;
12912;SDS011;6524;51.368;11.984;2024-03-08T08:09:05;27.02;;;24.27;;
12912;SDS011;6524;51.368;11.984;2024-03-08T08:14:07;27.17;;;24.58;;
12912;SDS011;6524;51.368;11.984;2024-03-08T08:19:09;27.25;;;24.70;;
12912;SDS011;6524;51.368;11.984;2024-03-08T08:24:10;26.63;;;24.15;;
12912;SDS011;6524;51.368;11.984;2024-03-08T08:29:11;28.20;;;25.50;;
12912;SDS011;6524;51.368;11.984;2024-03-08T08:34:11;26.73;;;24.23;;
12912;SDS011;6524;51.368;11.984;2024-03-08T08:39:12;27.75;;;25.05;;
12912;SDS011;6524;51.368;11.984;2024-03-08T08:44:13;27.20;;;24.67;;
12912;SDS011;6524;51.368;11.984;2024-03-08T08:49:15;27.75;;;24.88;;
12912;SDS011;6524;51.368;11.984;2024-03-08T08:54:20;26.48;;;23.88;;
12912;SDS011;6524;51.368;11.984;2024-03-08T08:59:22;28.02;;;25.30;;
12912;SDS011;6524;51.368;11.984;2024-03-08T09:04:25;27.55;;;24.92;;
12912;SDS011;6524;51.368;11.984;2024-03-08T09:09:26;27.63;;;25.02;;
12912;SDS011;6524;51.368;11.984;2024-03-08T09:14:29;26.67;;;24.08;;
12912;SDS011;6524;51.368;11.984;2024-03-08T09:19:30;27.23;;;24.52;;
12912;SDS011;6524;51.368;11.984;2024-03-08T09:24:30;27.08;;;24.45;;
12912;SDS011;6524;51.368;11.984;2024-03-08T09:29:31;28.25;;;25.33;;
12912;SDS011;6524;51.368;11.984;2024-03-08T09:34:33;27.30;;;24.70;;
12912;SDS011;6524;51.368;11.984;2024-03-08T09:39:33;28.30;;;25.35;;
12912;SDS011;6524;51.368;11.984;2024-03-08T09:44:34;27.70;;;24.90;;
12912;SDS011;6524;51.368;11.984;2024-03-08T09:49:35;27.17;;;24.48;;
12912;SDS011;6524;51.368;11.984;2024-03-08T09:54:36;27.45;;;24.75;;
12912;SDS011;6524;51.368;11.984;2024-03-08T09:59:36;27.52;;;24.83;;
12912;SDS011;6524;51.368;11.984;2024-03-08T10:04:37;26.05;;;23.45;;
12912;SDS011;6524;51.368;11.984;2024-03-08T10:09:41;26.08;;;23.52;;
12912;SDS011;6524;51.368;11.984;2024-03-08T10:14:47;26.73;;;24.08;;
12912;SDS011;6524;51.368;11.984;2024-03-08T10:19:51;26.20;;;23.60;;
12912;SDS011;6524;51.368;11.984;2024-03-08T10:24:53;26.92;;;24.35;;
12912;SDS011;6524;51.368;11.984;2024-03-08T10:29:53;26.75;;;24.13;;
12912;SDS011;6524;51.368;11.984;2024-03-08T10:34:54;26.73;;;24.15;;
12912;SDS011;6524;51.368;11.984;2024-03-08T10:40:04;26.65;;;23.95;;
12912;SDS011;6524;51.368;11.984;2024-03-08T10:45:16;26.05;;;23.50;;
12912;SDS011;6524;51.368;11.984;2024-03-08T10:50:30;24.17;;;21.80;;
12912;SDS011;6524;51.368;11.984;2024-03-08T10:55:34;24.48;;;22.08;;
12912;SDS011;6524;51.368;11.984;2024-03-08T11:00:40;25.50;;;22.92;;
12912;SDS011;6524;51.368;11.984;2024-03-08T11:05:41;24.50;;;21.90;;
12912;SDS011;6524;51.368;11.984;2024-03-08T11:10:52;24.45;;;22.00;;
12912;SDS011;6524;51.368;11.984;2024-03-08T11:15:56;24.20;;;21.83;;
12912;SDS011;6524;51.368;11.984;2024-03-08T11:20:57;23.42;;;20.92;;
12912;SDS011;6524;51.368;11.984;2024-03-08T11:25:58;23.45;;;20.95;;
12912;SDS011;6524;51.368;11.984;2024-03-08T11:36:12;21.77;;;19.48;;
12912;SDS011;6524;51.368;11.984;2024-03-08T11:41:17;21.40;;;19.20;;
12912;SDS011;6524;51.368;11.984;2024-03-08T11:46:19;22.67;;;20.27;;
12912;SDS011;6524;51.368;11.984;2024-03-08T11:51:21;22.13;;;19.92;;
12912;SDS011;6524;51.368;11.984;2024-03-08T11:56:22;22.45;;;20.05;;
12912;SDS011;6524;51.368;11.984;2024-03-08T12:01:22;22.88;;;20.42;;
12912;SDS011;6524;51.368;11.984;2024-03-08T12:06:24;22.90;;;20.55;;
12912;SDS011;6524;51.368;11.984;2024-03-08T12:11:25;23.45;;;20.92;;
12912;SDS011;6524;51.368;11.984;2024-03-08T12:16:26;26.02;;;22.77;;
12912;SDS011;6524;51.368;11.984;2024-03-08T12:21:27;24.58;;;21.98;;
12912;SDS011;6524;51.368;11.984;2024-03-08T12:26:29;24.25;;;21.67;;
12912;SDS011;6524;51.368;11.984;2024-03-08T12:31:32;24.55;;;21.90;;
12912;SDS011;6524;51.368;11.984;2024-03-08T12:36:33;24.85;;;21.92;;
12912;SDS011;6524;51.368;11.984;2024-03-08T12:41:38;25.80;;;22.17;;
12912;SDS011;6524;51.368;11.984;2024-03-08T12:46:41;24.95;;;21.48;;
12912;SDS011;6524;51.368;11.984;2024-03-08T12:51:45;23.30;;;20.80;;
12912;SDS011;6524;51.368;11.984;2024-03-08T12:56:46;22.88;;;20.10;;
12912;SDS011;6524;51.368;11.984;2024-03-08T13:01:47;24.58;;;21.30;;
12912;SDS011;6524;51.368;11.984;2024-03-08T13:06:48;24.20;;;21.30;;
12912;SDS011;6524;51.368;11.984;2024-03-08T13:11:50;22.92;;;20.42;;
12912;SDS011;6524;51.368;11.984;2024-03-08T13:16:50;28.50;;;20.15;;
12912;SDS011;6524;51.368;11.984;2024-03-08T13:21:51;22.95;;;20.42;;
12912;SDS011;6524;51.368;11.984;2024-03-08T13:26:53;23.92;;;19.98;;
12912;SDS011;6524;51.368;11.984;2024-03-08T13:31:54;23.58;;;20.75;;
12912;SDS011;6524;51.368;11.984;2024-03-08T13:36:57;26.63;;;21.98;;
12912;SDS011;6524;51.368;11.984;2024-03-08T13:42:00;28.63;;;22.77;;
12912;SDS011;6524;51.368;11.984;2024-03-08T13:47:00;26.50;;;22.55;;
12912;SDS011;6524;51.368;11.984;2024-03-08T13:52:04;26.08;;;22.35;;
12912;SDS011;6524;51.368;11.984;2024-03-08T13:57:05;25.60;;;21.83;;
12912;SDS011;6524;51.368;11.984;2024-03-08T14:02:07;26.17;;;22.20;;
12912;SDS011;6524;51.368;11.984;2024-03-08T14:07:13;26.77;;;23.40;;
12912;SDS011;6524;51.368;11.984;2024-03-08T14:12:23;27.38;;;23.75;;
12912;SDS011;6524;51.368;11.984;2024-03-08T14:17:26;27.88;;;23.33;;
12912;SDS011;6524;51.368;11.984;2024-03-08T14:22:28;27.83;;;23.98;;
12912;SDS011;6524;51.368;11.984;2024-03-08T14:27:28;28.98;;;24.05;;
12912;SDS011;6524;51.368;11.984;2024-03-08T14:32:29;29.42;;;24.60;;
12912;SDS011;6524;51.368;11.984;2024-03-08T14:37:29;26.40;;;22.25;;
12912;SDS011;6524;51.368;11.984;2024-03-08T14:42:29;27.38;;;23.23;;
12912;SDS011;6524;51.368;11.984;2024-03-08T14:47:30;26.92;;;22.20;;
12912;SDS011;6524;51.368;11.984;2024-03-08T14:52:31;26.40;;;22.15;;
12912;SDS011;6524;51.368;11.984;2024-03-08T14:57:31;26.75;;;22.63;;
12912;SDS011;6524;51.368;11.984;2024-03-08T15:02:33;28.73;;;23.42;;
12912;SDS011;6524;51.368;11.984;2024-03-08T15:07:39;27.25;;;22.67;;
12912;SDS011;6524;51.368;11.984;2024-03-08T15:12:40;25.52;;;21.60;;
12912;SDS011;6524;51.368;11.984;2024-03-08T15:17:41;27.48;;;23.27;;
12912;SDS011;6524;51.368;11.984;2024-03-08T15:22:43;28.92;;;23.17;;
12912;SDS011;6524;51.368;11.984;2024-03-08T15:27:44;27.77;;;22.52;;
12912;SDS011;6524;51.368;11.984;2024-03-08T15:32:45;27.52;;;23.35;;
12912;SDS011;6524;51.368;11.984;2024-03-08T15:37:47;29.33;;;23.17;;
12912;SDS011;6524;51.368;11.984;2024-03-08T15:42:48;28.63;;;22.52;;
12912;SDS011;6524;51.368;11.984;2024-03-08T15:47:49;28.85;;;22.70;;
12912;SDS011;6524;51.368;11.984;2024-03-08T15:52:50;30.25;;;23.20;;
12912;SDS011;6524;51.368;11.984;2024-03-08T15:57:53;28.52;;;22.48;;
12912;SDS011;6524;51.368;11.984;2024-03-08T16:02:56;28.23;;;22.27;;
12912;SDS011;6524;51.368;11.984;2024-03-08T16:07:57;28.42;;;22.02;;
12912;SDS011;6524;51.368;11.984;2024-03-08T16:12:59;27.73;;;22.10;;
12912;SDS011;6524;51.368;11.984;2024-03-08T16:18:01;29.98;;;22.25;;
12912;SDS011;6524;51.368;11.984;2024-03-08T16:23:08;28.77;;;22.20;;
12912;SDS011;6524;51.368;11.984;2024-03-08T16:28:11;28.58;;;21.65;;
12912;SDS011;6524;51.368;11.984;2024-03-08T16:33:12;28.88;;;21.90;;
12912;SDS011;6524;51.368;11.984;2024-03-08T16:38:15;30.45;;;21.83;;
12912;SDS011;6524;51.368;11.984;2024-03-08T16:43:16;26.98;;;20.45;;
12912;SDS011;6524;51.368;11.984;2024-03-08T16:48:18;29.17;;;21.48;;
12912;SDS011;6524;51.368;11.984;2024-03-08T16:53:19;30.42;;;21.83;;
12912;SDS011;6524;51.368;11.984;2024-03-08T16:58:24;29.33;;;21.77;;
12912;SDS011;6524;51.368;11.984;2024-03-08T17:03:25;29.98;;;22.27;;
12912;SDS011;6524;51.368;11.984;2024-03-08T17:08:25;28.88;;;20.75;;
12912;SDS011;6524;51.368;11.984;2024-03-08T17:13:29;28.65;;;21.30;;
12912;SDS011;6524;51.368;11.984;2024-03-08T17:18:34;29.55;;;21.35;;
12912;SDS011;6524;51.368;11.984;2024-03-08T17:23:35;28.52;;;21.67;;
12912;SDS011;6524;51.368;11.984;2024-03-08T17:28:41;30.42;;;21.08;;
12912;SDS011;6524;51.368;11.984;2024-03-08T17:33:43;29.40;;;21.20;;
12912;SDS011;6524;51.368;11.984;2024-03-08T17:38:45;28.30;;;21.05;;
12912;SDS011;6524;51.368;11.984;2024-03-08T17:43:47;29.73;;;20.20;;
12912;SDS011;6524;51.368;11.984;2024-03-08T17:48:50;26.95;;;19.80;;
12912;SDS011;6524;51.368;11.984;2024-03-08T17:53:54;27.73;;;20.02;;
12912;SDS011;6524;51.368;11.984;2024-03-08T17:58:54;29.13;;;20.33;;
12912;SDS011;6524;51.368;11.984;2024-03-08T18:03:55;26.77;;;20.30;;
12912;SDS011;6524;51.368;11.984;2024-03-08T18:08:56;26.00;;;19.60;;
12912;SDS011;6524;51.368;11.984;2024-03-08T18:13:56;27.02;;;19.52;;
12912;SDS011;6524;51.368;11.984;2024-03-08T18:18:58;29.23;;;19.45;;
12912;SDS011;6524;51.368;11.984;2024-03-08T18:23:59;29.25;;;20.23;;
12912;SDS011;6524;51.368;11.984;2024-03-08T18:29:01;26.35;;;19.80;;
12912;SDS011;6524;51.368;11.984;2024-03-08T18:34:04;29.25;;;19.75;;
12912;SDS011;6524;51.368;11.984;2024-03-08T18:39:06;29.50;;;20.35;;
12912;SDS011;6524;51.368;11.984;2024-03-08T18:44:07;26.40;;;18.77;;
12912;SDS011;6524;51.368;11.984;2024-03-08T18:49:07;25.88;;;19.23;;
12912;SDS011;6524;51.368;11.984;2024-03-08T18:54:08;24.02;;;18.90;;
12912;SDS011;6524;51.368;11.984;2024-03-08T18:59:11;26.95;;;20.13;;
12912;SDS011;6524;51.368;11.984;2024-03-08T19:04:12;28.30;;;19.48;;
12912;SDS011;6524;51.368;11.984;2024-03-08T19:09:13;31.02;;;21.10;;
12912;SDS011;6524;51.368;11.984;2024-03-08T19:14:14;29.92;;;20.70;;
12912;SDS011;6524;51.368;11.984;2024-03-08T19:19:18;30.33;;;21.10;;
12912;SDS011;6524;51.368;11.984;2024-03-08T19:24:21;30.17;;;21.90;;
12912;SDS011;6524;51.368;11.984;2024-03-08T19:29:24;29.13;;;21.00;;
12912;SDS011;6524;51.368;11.984;2024-03-08T19:34:25;32.03;;;21.73;;
12912;SDS011;6524;51.368;11.984;2024-03-08T19:39:26;30.53;;;21.90;;
12912;SDS011;6524;51.368;11.984;2024-03-08T19:44:27;32.88;;;22.30;;
12912;SDS011;6524;51.368;11.984;2024-03-08T19:49:28;31.33;;;22.38;;
12912;SDS011;6524;51.368;11.984;2024-03-08T19:54:28;32.57;;;22.87;;
12912;SDS011;6524;51.368;11.984;2024-03-08T19:59:29;33.90;;;23.27;;
12912;SDS011;6524;51.368;11.984;2024-03-08T20:04:30;35.83;;;23.37;;
12912;SDS011;6524;51.368;11.984;2024-03-08T20:09:31;34.07;;;23.83;;
12912;SDS011;6524;51.368;11.984;2024-03-08T20:14:32;36.83;;;24.47;;
12912;SDS011;6524;51.368;11.984;2024-03-08T20:19:35;35.75;;;25.63;;
12912;SDS011;6524;51.368;11.984;2024-03-08T20:24:37;37.83;;;26.45;;
12912;SDS011;6524;51.368;11.984;2024-03-08T20:29:38;36.90;;;25.23;;
12912;SDS011;6524;51.368;11.984;2024-03-08T20:34:42;39.85;;;26.40;;
12912;SDS011;6524;51.368;11.984;2024-03-08T20:39:45;40.13;;;26.00;;
12912;SDS011;6524;51.368;11.984;2024-03-08T20:44:46;42.23;;;28.23;;
12912;SDS011;6524;51.368;11.984;2024-03-08T20:49:47;41.33;;;28.13;;
12912;SDS011;6524;51.368;11.984;2024-03-08T20:54:50;40.47;;;28.63;;
12912;SDS011;6524;51.368;11.984;2024-03-08T20:59:50;42.67;;;29.60;;
12912;SDS011;6524;51.368;11.984;2024-03-08T21:04:50;43.43;;;29.67;;
12912;SDS011;6524;51.368;11.984;2024-03-08T21:09:52;46.77;;;30.77;;
12912;SDS011;6524;51.368;11.984;2024-03-08T21:14:54;47.17;;;30.50;;
12912;SDS011;6524;51.368;11.984;2024-03-08T21:19:55;43.40;;;29.23;;
12912;SDS011;6524;51.368;11.984;2024-03-08T21:24:56;44.90;;;30.47;;
12912;SDS011;6524;51.368;11.984;2024-03-08T21:29:57;44.63;;;30.40;;
12912;SDS011;6524;51.368;11.984;2024-03-08T21:34:57;46.77;;;30.87;;
12912;SDS011;6524;51.368;11.984;2024-03-08T21:39:57;44.43;;;29.30;;
12912;SDS011;6524;51.368;11.984;2024-03-08T21:44:58;46.20;;;30.07;;
12912;SDS011;6524;51.368;11.984;2024-03-08T21:49:59;44.93;;;28.77;;
12912;SDS011;6524;51.368;11.984;2024-03-08T21:54:59;44.63;;;30.20;;
12912;SDS011;6524;51.368;11.984;2024-03-08T21:59:59;49.13;;;30.57;;
12912;SDS011;6524;51.368;11.984;2024-03-08T22:05:00;47.40;;;30.83;;
12912;SDS011;6524;51.368;11.984;2024-03-08T22:10:00;43.60;;;29.50;;
12912;SDS011;6524;51.368;11.984;2024-03-08T22:15:00;43.97;;;28.67;;
12912;SDS011;6524;51.368;11.984;2024-03-08T22:20:01;43.83;;;29.03;;
12912;SDS011;6524;51.368;11.984;2024-03-08T22:25:10;42.77;;;28.13;;
12912;SDS011;6524;51.368;11.984;2024-03-08T22:30:11;45.97;;;29.03;;
12912;SDS011;6524;51.368;11.984;2024-03-08T22:35:18;44.93;;;29.40;;
12912;SDS011;6524;51.368;11.984;2024-03-08T22:40:21;46.20;;;29.47;;
12912;SDS011;6524;51.368;11.984;2024-03-08T22:45:23;41.87;;;27.33;;
12912;SDS011;6524;51.368;11.984;2024-03-08T22:50:23;44.23;;;27.13;;
12912;SDS011;6524;51.368;11.984;2024-03-08T22:55:24;42.10;;;27.37;;
12912;SDS011;6524;51.368;11.984;2024-03-08T23:00:26;40.97;;;26.97;;
12912;SDS011;6524;51.368;11.984;2024-03-08T23:05:46;38.63;;;25.47;;
12912;SDS011;6524;51.368;11.984;2024-03-08T23:10:57;36.83;;;25.03;;
12912;SDS011;6524;51.368;11.984;2024-03-08T23:15:59;38.33;;;24.43;;
12912;SDS011;6524;51.368;11.984;2024-03-08T23:21:04;35.47;;;24.23;;
12912;SDS011;6524;51.368;11.984;2024-03-08T23:26:08;36.27;;;23.40;;
12912;SDS011;6524;51.368;11.984;2024-03-08T23:31:11;36.60;;;23.60;;
12912;SDS011;6524;51.368;11.984;2024-03-08T23:36:14;34.93;;;22.80;;
12912;SDS011;6524;51.368;11.984;2024-03-08T23:41:15;35.70;;;23.37;;
12912;SDS011;6524;51.368;11.984;2024-03-08T23:46:18;33.70;;;22.87;;
12912;SDS011;6524;51.368;11.984;2024-03-08T23:51:22;31.63;;;22.27;;
12912;SDS011;6524;51.368;11.984;2024-03-08T23:56:24;35.60;;;22.87;;
